Finlandia — OJPP — position and weather

sailwx.info

Track history (hours):
 
Tides and Currents Weather Stations Pressure Air Temp Water Temp Dewpoint Dewpoint Depression Visibility Wind Speed Wind Dir Waves Ship Positions

Finlandia

Last reported at 2014-Nov-23 06:32 UTC. Time now 2014-Nov-23 07:31 UTC.
Position N 60°09' E 024°54'.

Length 175 m; draft 7 m.

Type: Passenger vessel. MMSI: 230628000.

Date/timePositionNaut miles runAvg speedWind from/ knotsBaromVisibWave heightAir tempDewpointWater temp
2014-Nov-23 06:32N 60°09' E 024°54'25 2.0
2014-Nov-22 18:18N 59°44' E 024°47'1621.3
2014-Nov-22 17:33N 59°28' E 024°46'1 1.4
2014-Nov-22 16:33N 59°27' E 024°46'1111.2
2014-Nov-22 15:33N 59°37' E 024°40'1 0.1
2014-Nov-22 10:33N 59°38' E 024°41'1111.4
2014-Nov-22 09:33N 59°27' E 024°46'4 4.3
2014-Nov-22 08:34N 59°31' E 024°44'17 1.2
2014-Nov-21 18:27N 59°48' E 024°46'1921.6
2014-Nov-21 17:34N 59°28' E 024°46'1 1.2
2014-Nov-21 16:27N 59°27' E 024°46'1112.2
2014-Nov-21 15:33N 59°37' E 024°40'2 0.3
2014-Nov-21 10:33N 59°38' E 024°42'1111.1
2014-Nov-21 09:32N 59°27' E 024°46'5 5.1
2014-Nov-21 08:33N 59°32' E 024°43'2119.5
2014-Nov-21 07:29N 59°52' E 024°49'4 0.3
2014-Nov-20 18:33N 59°49' E 024°46'2221.8
2014-Nov-20 17:34N 59°27' E 024°46'0 0.3
2014-Nov-20 16:31N 59°27' E 024°46'1111.5
2014-Nov-20 15:33N 59°37' E 024°40'1816.9
2014-Nov-20 14:30N 59°54' E 024°52'1515.6
2014-Nov-20 13:34N 60°09' E 024°55'0 0.2
2014-Nov-20 12:14N 60°09' E 024°55'1317.8
2014-Nov-20 11:29N 59°56' E 024°53'1819.6
2014-Nov-20 10:33N 59°38' E 024°42'1111.5
2014-Nov-20 09:33N 59°27' E 024°46'4 3.5
2014-Nov-20 08:33N 59°30' E 024°44'2120.4
2014-Nov-20 07:33N 59°51' E 024°50'8 0.6
2014-Nov-19 18:20N 59°43' E 024°47'1621.0
2014-Nov-19 17:34N 59°27' E 024°46'0 0.4
2014-Nov-19 16:31N 59°27' E 024°46'1212.1
2014-Nov-19 15:33N 59°38' E 024°40'1816.1
2014-Nov-19 14:28N 59°54' E 024°52'13 5.7
2014-Nov-19 12:09N 60°08' E 024°54'3119.7
2014-Nov-19 10:34N 59°37' E 024°41'1110.0
2014-Nov-19 09:30N 59°27' E 024°46'3 3.3
2014-Nov-19 08:33N 59°30' E 024°45'2019.6
2014-Nov-19 07:33N 59°49' E 024°46'2019.4
2014-Nov-19 06:33N 60°08' E 024°54'5 0.4
2014-Nov-18 19:13N 60°04' E 024°54'1623.8
2014-Nov-18 18:33N 59°48' E 024°49'2121.4
2014-Nov-18 17:33N 59°27' E 024°46'0 0.3
2014-Nov-18 16:31N 59°27' E 024°46'1111.4
2014-Nov-18 15:33N 59°37' E 024°40'1716.6
2014-Nov-18 14:33N 59°53' E 024°52'1615.4
2014-Nov-18 13:30N 60°09' E 024°55'0 0.0
2014-Nov-18 12:19N 60°09' E 024°55'3419.7
2014-Nov-18 10:33N 59°35' E 024°42'8 8.4
2014-Nov-18 09:33N 59°27' E 024°46'3 3.3
2014-Nov-18 08:33N 59°30' E 024°45'1818.5
2014-Nov-18 07:34N 59°48' E 024°50'4 0.3
2014-Nov-17 18:33N 59°46' E 024°45'1919.5
2014-Nov-17 17:33N 59°27' E 024°46'0 0.0
2014-Nov-17 16:32N 59°27' E 024°46'1111.2
2014-Nov-17 15:33N 59°37' E 024°40'1817.3
2014-Nov-17 14:30N 59°54' E 024°52'13 5.4
2014-Nov-17 12:07N 60°07' E 024°54'3321.0
2014-Nov-17 10:34N 59°36' E 024°41'9 9.1
2014-Nov-17 09:33N 59°27' E 024°46'2 2.0
2014-Nov-17 08:33N 59°29' E 024°46'2019.6
2014-Nov-17 07:33N 59°48' E 024°45'13 1.0
2014-Nov-16 19:04N 60°00' E 024°54'1625.3
2014-Nov-16 18:26N 59°44' E 024°47'1820.3
2014-Nov-16 17:33N 59°27' E 024°46'0 0.2
2014-Nov-16 16:31N 59°27' E 024°46'5 4.7
2014-Nov-16 15:34N 59°31' E 024°44'2120.9
2014-Nov-16 14:33N 59°52' E 024°51'18 8.7
2014-Nov-16 12:32N 60°09' E 024°55'1815.5
2014-Nov-16 11:22N 59°51' E 024°51'1822.0
2014-Nov-16 10:34N 59°34' E 024°43'8 7.5
2014-Nov-16 09:33N 59°27' E 024°46'2 1.9
2014-Nov-16 08:33N 59°29' E 024°46'2020.0
2014-Nov-16 07:33N 59°49' E 024°46'2 0.2
2014-Nov-15 18:27N 59°47' E 024°42'2022.6
2014-Nov-15 17:34N 59°27' E 024°47'1 0.8
2014-Nov-15 16:32N 59°27' E 024°46'1111.2
2014-Nov-15 15:33N 59°37' E 024°40'1817.4
2014-Nov-15 14:32N 59°54' E 024°52'7 2.1
2014-Nov-15 11:05N 59°48' E 024°44'1120.4
2014-Nov-15 10:34N 59°37' E 024°41'1110.7
2014-Nov-15 09:33N 59°27' E 024°46'3 3.2
2014-Nov-15 08:33N 59°30' E 024°45'2420.6
2014-Nov-15 07:23N 59°54' E 024°52'9 0.7
2014-Nov-14 18:25N 59°45' E 024°50'1921.7
2014-Nov-14 17:33N 59°27' E 024°47'1 0.5
2014-Nov-14 16:33N 59°27' E 024°46'1110.9
2014-Nov-14 15:34N 59°37' E 024°40'1817.7
2014-Nov-14 14:34N 59°54' E 024°51'2 0.7
2014-Nov-14 11:29N 59°56' E 024°53'1920.5
2014-Nov-14 10:33N 59°38' E 024°41'1111.2
2014-Nov-14 09:33N 59°27' E 024°46'2 1.9
2014-Nov-14 08:33N 59°29' E 024°46'18 1.3
2014-Nov-13 18:28N 59°46' E 024°46'1921.2
2014-Nov-13 17:34N 59°27' E 024°47'1 0.6
2014-Nov-13 16:32N 59°27' E 024°46'1111.3
2014-Nov-13 15:34N 59°37' E 024°40'2017.3
2014-Nov-13 14:25N 59°56' E 024°53'11 4.9
2014-Nov-13 12:08N 60°07' E 024°54'1119.0
2014-Nov-13 11:33N 59°56' E 024°52'1919.6
2014-Nov-13 10:34N 59°37' E 024°41'1110.5
2014-Nov-13 09:32N 59°27' E 024°46'4 3.9
2014-Nov-13 08:34N 59°30' E 024°44'  
Track history (hours):
 
Tides and Currents Weather Stations Pressure Air Temp Water Temp Dewpoint Dewpoint Depression Visibility Wind Speed Wind Dir Waves Ship Positions

Finlandia

Last reported at 2014-Nov-23 06:32 UTC. Time now 2014-Nov-23 07:31 UTC.
Position N 60°09' E 024°54'.

Length 175 m; draft 7 m.

Type: Passenger vessel. MMSI: 230628000.

Date/timePositionNaut miles runAvg speedWind from/ knotsBaromVisibWave heightAir tempDewpointWater temp
2014-Nov-23 06:32N 60°09' E 024°54'25 2.0
2014-Nov-22 18:18N 59°44' E 024°47'1621.3
2014-Nov-22 17:33N 59°28' E 024°46'1 1.4
2014-Nov-22 16:33N 59°27' E 024°46'1111.2
2014-Nov-22 15:33N 59°37' E 024°40'1 0.1
2014-Nov-22 10:33N 59°38' E 024°41'1111.4
2014-Nov-22 09:33N 59°27' E 024°46'4 4.3
2014-Nov-22 08:34N 59°31' E 024°44'17 1.2
2014-Nov-21 18:27N 59°48' E 024°46'1921.6
2014-Nov-21 17:34N 59°28' E 024°46'1 1.2
2014-Nov-21 16:27N 59°27' E 024°46'1112.2
2014-Nov-21 15:33N 59°37' E 024°40'2 0.3
2014-Nov-21 10:33N 59°38' E 024°42'1111.1
2014-Nov-21 09:32N 59°27' E 024°46'5 5.1
2014-Nov-21 08:33N 59°32' E 024°43'2119.5
2014-Nov-21 07:29N 59°52' E 024°49'4 0.3
2014-Nov-20 18:33N 59°49' E 024°46'2221.8
2014-Nov-20 17:34N 59°27' E 024°46'0 0.3
2014-Nov-20 16:31N 59°27' E 024°46'1111.5
2014-Nov-20 15:33N 59°37' E 024°40'1816.9
2014-Nov-20 14:30N 59°54' E 024°52'1515.6
2014-Nov-20 13:34N 60°09' E 024°55'0 0.2
2014-Nov-20 12:14N 60°09' E 024°55'1317.8
2014-Nov-20 11:29N 59°56' E 024°53'1819.6
2014-Nov-20 10:33N 59°38' E 024°42'1111.5
2014-Nov-20 09:33N 59°27' E 024°46'4 3.5
2014-Nov-20 08:33N 59°30' E 024°44'2120.4
2014-Nov-20 07:33N 59°51' E 024°50'8 0.6
2014-Nov-19 18:20N 59°43' E 024°47'1621.0
2014-Nov-19 17:34N 59°27' E 024°46'0 0.4
2014-Nov-19 16:31N 59°27' E 024°46'1212.1
2014-Nov-19 15:33N 59°38' E 024°40'1816.1
2014-Nov-19 14:28N 59°54' E 024°52'13 5.7
2014-Nov-19 12:09N 60°08' E 024°54'3119.7
2014-Nov-19 10:34N 59°37' E 024°41'1110.0
2014-Nov-19 09:30N 59°27' E 024°46'3 3.3
2014-Nov-19 08:33N 59°30' E 024°45'2019.6
2014-Nov-19 07:33N 59°49' E 024°46'2019.4
2014-Nov-19 06:33N 60°08' E 024°54'5 0.4
2014-Nov-18 19:13N 60°04' E 024°54'1623.8
2014-Nov-18 18:33N 59°48' E 024°49'2121.4
2014-Nov-18 17:33N 59°27' E 024°46'0 0.3
2014-Nov-18 16:31N 59°27' E 024°46'1111.4
2014-Nov-18 15:33N 59°37' E 024°40'1716.6
2014-Nov-18 14:33N 59°53' E 024°52'1615.4
2014-Nov-18 13:30N 60°09' E 024°55'0 0.0
2014-Nov-18 12:19N 60°09' E 024°55'3419.7
2014-Nov-18 10:33N 59°35' E 024°42'8 8.4
2014-Nov-18 09:33N 59°27' E 024°46'3 3.3
2014-Nov-18 08:33N 59°30' E 024°45'1818.5
2014-Nov-18 07:34N 59°48' E 024°50'4 0.3
2014-Nov-17 18:33N 59°46' E 024°45'1919.5
2014-Nov-17 17:33N 59°27' E 024°46'0 0.0
2014-Nov-17 16:32N 59°27' E 024°46'1111.2
2014-Nov-17 15:33N 59°37' E 024°40'1817.3
2014-Nov-17 14:30N 59°54' E 024°52'13 5.4
2014-Nov-17 12:07N 60°07' E 024°54'3321.0
2014-Nov-17 10:34N 59°36' E 024°41'9 9.1
2014-Nov-17 09:33N 59°27' E 024°46'2 2.0
2014-Nov-17 08:33N 59°29' E 024°46'2019.6
2014-Nov-17 07:33N 59°48' E 024°45'13 1.0
2014-Nov-16 19:04N 60°00' E 024°54'1625.3
2014-Nov-16 18:26N 59°44' E 024°47'1820.3
2014-Nov-16 17:33N 59°27' E 024°46'0 0.2
2014-Nov-16 16:31N 59°27' E 024°46'5 4.7
2014-Nov-16 15:34N 59°31' E 024°44'2120.9
2014-Nov-16 14:33N 59°52' E 024°51'18 8.7
2014-Nov-16 12:32N 60°09' E 024°55'1815.5
2014-Nov-16 11:22N 59°51' E 024°51'1822.0
2014-Nov-16 10:34N 59°34' E 024°43'8 7.5
2014-Nov-16 09:33N 59°27' E 024°46'2 1.9
2014-Nov-16 08:33N 59°29' E 024°46'2020.0
2014-Nov-16 07:33N 59°49' E 024°46'2 0.2
2014-Nov-15 18:27N 59°47' E 024°42'2022.6
2014-Nov-15 17:34N 59°27' E 024°47'1 0.8
2014-Nov-15 16:32N 59°27' E 024°46'1111.2
2014-Nov-15 15:33N 59°37' E 024°40'1817.4
2014-Nov-15 14:32N 59°54' E 024°52'7 2.1
2014-Nov-15 11:05N 59°48' E 024°44'1120.4
2014-Nov-15 10:34N 59°37' E 024°41'1110.7
2014-Nov-15 09:33N 59°27' E 024°46'3 3.2
2014-Nov-15 08:33N 59°30' E 024°45'2420.6
2014-Nov-15 07:23N 59°54' E 024°52'9 0.7
2014-Nov-14 18:25N 59°45' E 024°50'1921.7
2014-Nov-14 17:33N 59°27' E 024°47'1 0.5
2014-Nov-14 16:33N 59°27' E 024°46'1110.9
2014-Nov-14 15:34N 59°37' E 024°40'1817.7
2014-Nov-14 14:34N 59°54' E 024°51'2 0.7
2014-Nov-14 11:29N 59°56' E 024°53'1920.5
2014-Nov-14 10:33N 59°38' E 024°41'1111.2
2014-Nov-14 09:33N 59°27' E 024°46'2 1.9
2014-Nov-14 08:33N 59°29' E 024°46'18 1.3
2014-Nov-13 18:28N 59°46' E 024°46'1921.2
2014-Nov-13 17:34N 59°27' E 024°47'1 0.6
2014-Nov-13 16:32N 59°27' E 024°46'1111.3
2014-Nov-13 15:34N 59°37' E 024°40'2017.3
2014-Nov-13 14:25N 59°56' E 024°53'11 4.9
2014-Nov-13 12:08N 60°07' E 024°54'1119.0
2014-Nov-13 11:33N 59°56' E 024°52'1919.6
2014-Nov-13 10:34N 59°37' E 024°41'1110.5
2014-Nov-13 09:32N 59°27' E 024°46'4 3.9
2014-Nov-13 08:34N 59°30' E 024°44'  

Dump ship's entire track history